Terminal Aerodrome Forecast
Issued by NWS Goodland, KS

Home | Current Version | Previous Version | Text Only | Print | Product List | Glossary On
Versions: 1 2 3 4 5 6 7 8 9 10 11 12 13 14 15 16 17 18 19
812
FTUS43 KGLD 060520
TAFGLD
TAF
KGLD 060520Z 0606/0706 35010KT P6SM FEW150
     FM061400 31007KT P6SM FEW250
     FM061700 34008KT P6SM SCT250
     FM062200 14004KT P6SM SCT150
     FM070300 12007KT 6SM -SN BKN060 BKN100=

USA.gov is the U.S. government's official web portal to all federal, state and local government web resources and services.